Time;durP1;ratioP1;P1;durP2;ratioP2;P2;SDS_P1;SDS_P2;PMS_P1;PMS_P2;Temp;Humidity;BMP_temperature;BMP_pressure;BME280_temperature;BME280_humidity;BME280_pressure;Samples;Min_cycle;Max_cycle;Signal;HPM_P1;HPM_P2
2021/07/02 00:12:01;;;;;;;20.03;9.27;;;14.80;97.30;;;;;;5012091;28;20451;-91
2021/07/02 00:29:49;;;;;;;24.20;10.17;;;14.80;97.30;;;;;;5011084;28;20490;-90
2021/07/02 00:32:14;;;;;;;22.83;10.30;;;14.80;97.30;;;;;;4994586;28;20631;-90
2021/07/02 00:34:40;;;;;;;21.50;9.83;;;14.80;97.30;;;;;;4994531;28;20552;-88
2021/07/02 00:37:06;;;;;;;29.70;11.43;;;14.80;97.30;;;;;;4995030;28;20169;-90
2021/07/02 00:52:34;;;;;;;26.30;11.60;;;14.80;97.30;;;;;;5431526;23;20503;-91
2021/07/02 00:55:23;;;;;;;28.70;11.00;;;14.80;97.30;;;;;;4999753;28;20455;-90
2021/07/02 00:57:52;;;;;;;26.27;10.63;;;14.80;97.30;;;;;;4999105;28;20420;-90
2021/07/02 01:00:24;;;;;;;28.73;10.97;;;14.80;97.30;;;;;;4999087;28;20471;-90
2021/07/02 01:02:53;;;;;;;27.77;11.07;;;14.90;97.30;;;;;;4999309;28;20443;-90
2021/07/02 01:05:24;;;;;;;26.20;10.70;;;14.90;97.30;;;;;;4998880;28;20428;-90
2021/07/02 01:08:32;;;;;;;30.33;11.50;;;14.90;97.30;;;;;;4998724;28;20434;-91
2021/07/02 01:10:58;;;;;;;31.10;12.23;;;14.90;97.30;;;;;;4998780;28;20431;-90
2021/07/02 01:13:23;;;;;;;32.53;13.17;;;14.90;97.30;;;;;;5017170;28;20494;-90
2021/07/02 01:15:58;;;;;;;30.40;12.40;;;14.90;97.30;;;;;;4999539;28;20670;-90
2021/07/02 01:18:23;;;;;;;30.73;11.83;;;14.90;97.30;;;;;;4999748;28;20188;-90
2021/07/02 01:20:53;;;;;;;28.20;11.17;;;14.90;97.30;;;;;;4999330;28;20472;-90
2021/07/02 01:23:19;;;;;;;24.03;11.70;;;14.90;97.30;;;;;;5000026;28;20169;-90
2021/07/02 01:25:46;;;;;;;30.60;12.30;;;14.90;97.30;;;;;;5000446;28;20416;-90
2021/07/02 01:28:17;;;;;;;33.50;13.50;;;14.90;97.30;;;;;;5001237;28;20419;-90
2021/07/02 01:30:43;;;;;;;33.70;14.10;;;14.90;97.30;;;;;;5000112;28;20455;-90
2021/07/02 01:33:12;;;;;;;33.00;12.97;;;14.90;97.30;;;;;;5000659;28;20408;-91
2021/07/02 01:35:39;;;;;;;29.87;13.47;;;14.90;97.30;;;;;;5000580;28;20428;-90
2021/07/02 01:38:05;;;;;;;30.63;12.00;;;14.90;97.30;;;;;;5000511;28;20439;-90
2021/07/02 01:40:32;;;;;;;27.37;12.97;;;14.90;97.30;;;;;;4998630;28;20559;-90
2021/07/02 01:42:58;;;;;;;30.30;12.50;;;14.90;97.30;;;;;;5015581;28;20400;-91
2021/07/02 01:45:24;;;;;;;30.30;13.67;;;14.90;97.30;;;;;;4997852;28;20405;-91
2021/07/02 01:47:53;;;;;;;36.50;14.40;;;14.90;97.30;;;;;;4998509;28;20431;-90
2021/07/02 01:50:19;;;;;;;32.13;12.13;;;14.90;97.30;;;;;;5015761;28;20197;-90
2021/07/02 01:52:44;;;;;;;33.30;13.57;;;14.90;97.30;;;;;;4997889;28;20471;-91
2021/07/02 01:55:10;;;;;;;33.73;14.17;;;14.90;97.30;;;;;;5015777;28;20318;-90
2021/07/02 01:57:36;;;;;;;47.93;14.90;;;14.90;97.30;;;;;;4998771;28;20201;-90
2021/07/02 02:00:01;;;;;;;37.70;13.97;;;14.90;97.30;;;;;;4998762;28;20205;-90
2021/07/02 02:02:30;;;;;;;40.67;13.63;;;14.90;97.30;;;;;;4999428;28;20223;-90
2021/07/02 02:05:04;;;;;;;36.07;14.60;;;14.90;97.30;;;;;;5015798;28;20173;-91
2021/07/02 02:07:42;;;;;;;42.53;13.80;;;14.90;97.30;;;;;;4999281;28;20410;-91
2021/07/02 02:13:51;;;;;;;31.53;13.47;;;15.00;97.30;;;;;;5018254;28;20772;-90
2021/07/02 02:17:01;;;;;;;34.20;13.50;;;15.00;97.30;;;;;;4999953;28;20416;-90
2021/07/02 02:23:14;;;;;;;41.53;14.00;;;15.00;97.30;;;;;;5016927;28;20471;-90
2021/07/02 02:25:43;;;;;;;40.33;14.07;;;15.00;97.30;;;;;;4998490;28;20408;-91
2021/07/02 02:28:31;;;;;;;43.63;15.03;;;15.00;97.30;;;;;;5014783;28;20492;-90
2021/07/02 02:31:03;;;;;;;38.83;13.80;;;15.00;97.30;;;;;;4997311;28;20968;-90
2021/07/02 02:34:21;;;;;;;36.23;13.27;;;15.00;97.30;;;;;;4997445;28;20459;-91
2021/07/02 02:37:03;;;;;;;39.67;14.60;;;15.00;97.30;;;;;;4997030;28;20413;-90
2021/07/02 02:39:32;;;;;;;36.50;14.33;;;15.00;97.30;;;;;;4978043;28;20429;-90
2021/07/02 02:42:23;;;;;;;36.23;14.47;;;15.00;97.30;;;;;;5026769;23;20506;-91
2021/07/02 02:48:52;;;;;;;43.33;16.03;;;15.00;97.30;;;;;;4955215;28;20494;-90
2021/07/02 02:51:24;;;;;;;40.27;13.93;;;15.00;97.30;;;;;;4999677;23;20609;-90
2021/07/02 02:54:13;;;;;;;37.33;14.40;;;15.00;97.30;;;;;;5015453;28;20396;-90
2021/07/02 02:57:33;;;;;;;42.80;14.87;;;15.00;97.30;;;;;;4991215;28;21019;-91
2021/07/02 03:00:14;;;;;;;46.90;14.77;;;15.10;97.30;;;;;;5004646;23;20559;-89
2021/07/02 03:06:44;;;;;;;36.90;15.10;;;15.10;97.30;;;;;;4970533;28;20432;-90
2021/07/02 03:12:14;;;;;;;51.43;15.37;;;15.10;97.30;;;;;;5001031;23;20551;-90
2021/07/02 03:14:54;;;;;;;;;;;;;;;;;;;;;
2021/07/02 03:17:32;;;;;;;42.77;15.00;;;15.10;97.30;;;;;;4974275;28;20167;-90
2021/07/02 03:26:44;;;;;;;50.40;17.60;;;15.10;97.30;;;;;;4975513;28;20429;-91
2021/07/02 03:37:53;;;;;;;47.67;18.07;;;15.20;97.30;;;;;;5013079;28;20586;-90
2021/07/02 03:40:44;;;;;;;47.73;16.80;;;15.20;97.30;;;;;;5021104;23;20495;-90
2021/07/02 03:50:02;;;;;;;42.70;17.00;;;15.20;97.30;;;;;;4916928;29;20557;-90
2021/07/02 03:52:34;;;;;;;46.70;16.77;;;15.20;97.30;;;;;;4878924;29;20446;-89
2021/07/02 04:30:12;;;;;;;55.20;17.93;;;15.40;97.30;;;;;;5328588;23;20491;-90
2021/07/02 04:32:43;;;;;;;43.93;18.07;;;15.40;97.30;;;;;;5001562;28;20454;-90
2021/07/02 04:35:30;;;;;;;46.37;18.80;;;15.40;97.30;;;;;;5001802;28;20527;-90
2021/07/02 04:38:13;;;;;;;50.53;18.40;;;15.40;97.30;;;;;;5001855;28;20579;-90
2021/07/02 04:40:53;;;;;;;46.80;17.73;;;15.40;97.30;;;;;;5026636;23;20487;-90
2021/07/02 04:43:24;;;;;;;49.63;19.00;;;15.40;97.30;;;;;;5001011;28;20423;-90
2021/07/02 04:46:24;;;;;;;45.90;18.23;;;15.40;97.30;;;;;;5000912;28;20454;-90
2021/07/02 04:49:42;;;;;;;42.10;16.70;;;15.40;97.30;;;;;;4999306;28;20902;-90
2021/07/02 04:52:14;;;;;;;41.93;17.63;;;15.40;97.30;;;;;;5016811;28;20432;-90
2021/07/02 04:55:13;;;;;;;42.27;16.30;;;15.40;97.30;;;;;;5015199;28;20458;-90
2021/07/02 05:10:52;;;;;;;41.33;18.53;;;15.40;97.30;;;;;;4994690;23;20492;-84
2021/07/02 05:13:18;;;;;;;50.40;18.40;;;15.40;97.30;;;;;;4959395;28;20422;-86
2021/07/02 05:15:44;;;;;;;48.33;18.57;;;15.40;97.30;;;;;;4958814;28;20410;-84
2021/07/02 05:18:10;;;;;;;44.63;19.10;;;15.40;97.30;;;;;;4958775;28;20174;-84
2021/07/02 05:20:36;;;;;;;50.87;19.70;;;15.40;97.30;;;;;;4959871;28;20218;-83
2021/07/02 05:23:02;;;;;;;54.63;21.30;;;15.50;97.30;;;;;;4958873;28;20805;-83
2021/07/02 05:25:28;;;;;;;52.10;20.13;;;15.50;97.30;;;;;;4958611;28;20577;-83
2021/07/02 05:27:53;;;;;;;46.90;18.60;;;15.50;97.30;;;;;;4968743;28;20174;-85
2021/07/02 05:30:19;;;;;;;55.67;20.00;;;15.50;97.30;;;;;;4979165;28;20193;-85
2021/07/02 05:32:45;;;;;;;53.27;20.13;;;15.60;97.30;;;;;;4978640;28;20646;-84
2021/07/02 05:35:11;;;;;;;48.97;21.33;;;15.60;97.30;;;;;;4972277;28;20438;-84
2021/07/02 05:37:41;;;;;;;53.37;22.47;;;15.70;97.30;;;;;;4958617;28;20214;-85
2021/07/02 05:40:07;;;;;;;51.90;20.70;;;15.70;97.30;;;;;;4957812;28;20202;-85
2021/07/02 05:42:33;;;;;;;44.80;20.57;;;15.70;97.30;;;;;;4958169;28;20442;-85
2021/07/02 05:44:58;;;;;;;48.83;19.90;;;15.70;97.30;;;;;;4975684;28;20468;-86
2021/07/02 05:47:24;;;;;;;53.93;20.13;;;15.80;97.30;;;;;;4958537;28;20611;-85
2021/07/02 05:49:50;;;;;;;48.60;19.60;;;15.80;97.30;;;;;;4959089;28;20642;-85
2021/07/02 05:52:15;;;;;;;56.67;22.60;;;15.90;97.30;;;;;;4966513;28;20487;-85
2021/07/02 05:54:45;;;;;;;60.90;20.70;;;15.90;97.30;;;;;;4969125;28;20224;-85
2021/07/02 05:57:10;;;;;;;48.03;19.07;;;15.90;97.30;;;;;;4967269;28;20178;-84
2021/07/02 05:59:36;;;;;;;52.50;20.47;;;15.90;97.30;;;;;;4963735;28;20479;-85
2021/07/02 06:02:01;;;;;;;46.43;19.70;;;16.00;97.30;;;;;;4975952;28;20213;-85
2021/07/02 06:04:27;;;;;;;42.53;20.30;;;16.00;97.30;;;;;;4967116;28;20563;-84
2021/07/02 06:06:53;;;;;;;52.40;18.80;;;16.00;97.30;;;;;;4964038;28;20302;-85
2021/07/02 06:09:18;;;;;;;49.87;19.17;;;16.10;97.30;;;;;;4957329;28;20175;-85
2021/07/02 06:11:44;;;;;;;48.93;19.20;;;16.10;97.30;;;;;;4958075;28;20665;-85
2021/07/02 06:14:09;;;;;;;50.90;19.47;;;16.20;97.30;;;;;;4959382;28;20542;-84
2021/07/02 06:16:35;;;;;;;46.47;18.17;;;16.20;97.30;;;;;;4958066;28;20186;-85
2021/07/02 06:19:00;;;;;;;47.77;18.00;;;16.20;97.30;;;;;;4956807;28;20217;-85
2021/07/02 06:21:27;;;;;;;37.73;18.27;;;16.20;97.30;;;;;;4957572;28;20214;-85
2021/07/02 06:23:53;;;;;;;35.40;17.20;;;16.20;97.30;;;;;;4958872;28;20194;-86
2021/07/02 06:26:18;;;;;;;40.50;17.20;;;16.20;97.30;;;;;;4957392;28;20755;-84
2021/07/02 06:28:44;;;;;;;47.63;19.80;;;16.30;97.30;;;;;;4957603;28;20183;-84
2021/07/02 06:31:09;;;;;;;40.30;17.83;;;16.30;97.30;;;;;;4958673;28;20759;-85
2021/07/02 06:33:35;;;;;;;38.00;18.40;;;16.30;97.30;;;;;;4958615;28;20548;-85
2021/07/02 06:36:02;;;;;;;40.80;17.27;;;16.30;97.30;;;;;;4957545;28;20225;-85
2021/07/02 06:38:28;;;;;;;38.23;17.43;;;16.30;97.30;;;;;;4957594;28;20261;-84
2021/07/02 06:40:53;;;;;;;43.97;18.20;;;16.30;97.30;;;;;;4957405;28;20893;-84
2021/07/02 06:43:19;;;;;;;39.93;18.30;;;16.40;97.30;;;;;;4957673;28;20171;-85
2021/07/02 06:45:45;;;;;;;38.67;17.17;;;16.40;97.30;;;;;;4957426;28;20179;-85
2021/07/02 06:48:10;;;;;;;38.30;18.20;;;16.50;97.30;;;;;;4976066;28;20189;-84
2021/07/02 06:50:38;;;;;;;39.53;18.10;;;16.50;97.30;;;;;;4957649;28;20201;-84
2021/07/02 06:53:05;;;;;;;38.77;17.03;;;16.50;97.30;;;;;;4956629;28;20219;-85
2021/07/02 06:55:32;;;;;;;40.17;17.37;;;16.60;97.30;;;;;;4957431;28;20449;-86
2021/07/02 06:57:58;;;;;;;34.43;15.70;;;16.60;97.30;;;;;;4957624;28;20429;-84
2021/07/02 07:00:24;;;;;;;38.60;17.37;;;16.60;97.30;;;;;;4956953;28;20466;-85
2021/07/02 07:02:50;;;;;;;36.13;16.73;;;16.60;97.30;;;;;;4957580;28;20261;-85
2021/07/02 07:05:17;;;;;;;33.50;16.03;;;16.70;97.30;;;;;;4957901;28;20421;-85
2021/07/02 07:07:43;;;;;;;33.90;16.77;;;16.70;97.30;;;;;;4957312;28;20437;-85
2021/07/02 07:10:09;;;;;;;40.57;15.93;;;16.80;97.30;;;;;;4973527;28;20418;-85
2021/07/02 07:12:36;;;;;;;40.37;16.20;;;16.80;97.30;;;;;;4956889;28;20458;-85
2021/07/02 07:15:02;;;;;;;38.67;15.67;;;16.90;97.30;;;;;;4957409;28;20466;-85
2021/07/02 07:17:29;;;;;;;33.33;15.30;;;16.90;97.30;;;;;;4958110;28;20991;-85
2021/07/02 07:19:55;;;;;;;25.43;13.57;;;17.00;97.30;;;;;;4957029;28;20421;-85
2021/07/02 07:22:21;;;;;;;31.17;14.17;;;17.00;97.30;;;;;;4958510;28;20458;-85
2021/07/02 07:24:46;;;;;;;30.53;14.87;;;17.10;97.30;;;;;;4957029;28;20182;-85
2021/07/02 07:27:12;;;;;;;24.23;13.80;;;17.20;97.30;;;;;;4958065;28;20709;-85
2021/07/02 07:29:38;;;;;;;35.13;15.47;;;17.40;97.30;;;;;;4955994;28;20190;-83
2021/07/02 07:32:04;;;;;;;34.40;13.77;;;17.40;97.30;;;;;;4955387;28;20244;-83
2021/07/02 07:37:19;;;;;;;31.10;14.43;;;17.50;97.30;;;;;;4972432;28;20448;-84
2021/07/02 07:39:46;;;;;;;26.23;14.03;;;17.50;97.30;;;;;;4958598;28;20806;-83
2021/07/02 07:42:11;;;;;;;32.43;15.20;;;17.50;97.30;;;;;;4975519;28;20536;-83
2021/07/02 07:44:37;;;;;;;24.57;13.13;;;17.60;97.30;;;;;;4985946;28;20448;-83
2021/07/02 07:47:03;;;;;;;32.10;13.63;;;17.60;97.30;;;;;;4983238;28;20182;-86
2021/07/02 07:49:29;;;;;;;27.37;12.77;;;17.60;97.30;;;;;;4956231;28;20182;-83
2021/07/02 07:54:22;;;;;;;26.67;12.83;;;17.70;97.30;;;;;;4981732;28;20178;-85
2021/07/02 07:56:51;;;;;;;29.57;14.07;;;17.70;97.30;;;;;;4967080;28;20187;-85
2021/07/02 07:59:21;;;;;;;27.53;14.30;;;17.70;97.30;;;;;;4971181;28;20524;-84
2021/07/02 08:01:48;;;;;;;29.10;13.50;;;17.80;97.30;;;;;;4966350;28;20524;-85
2021/07/02 08:04:15;;;;;;;29.43;13.57;;;17.80;97.30;;;;;;4959702;28;20490;-85
2021/07/02 08:06:42;;;;;;;26.27;13.27;;;17.90;97.30;;;;;;4966219;28;20425;-86
2021/07/02 08:09:08;;;;;;;30.23;12.47;;;18.00;97.30;;;;;;4962240;28;20941;-85
2021/07/02 08:11:34;;;;;;;24.70;12.33;;;18.00;97.30;;;;;;4967180;28;20461;-83
2021/07/02 08:14:03;;;;;;;29.90;12.73;;;18.10;97.30;;;;;;4966276;28;20537;-83
2021/07/02 08:16:29;;;;;;;37.43;12.97;;;18.20;97.30;;;;;;4960352;28;20468;-83
2021/07/02 08:18:55;;;;;;;28.60;13.17;;;18.20;97.30;;;;;;4964633;28;20421;-83
2021/07/02 08:21:20;;;;;;;26.63;12.03;;;18.30;97.30;;;;;;4965413;28;20865;-83
2021/07/02 08:23:46;;;;;;;22.93;11.50;;;18.30;97.30;;;;;;4960427;28;20249;-83
2021/07/02 08:26:12;;;;;;;29.03;13.47;;;18.30;97.30;;;;;;4971729;28;20182;-84
2021/07/02 08:31:25;;;;;;;26.90;11.17;;;18.40;97.30;;;;;;4980228;28;20560;-82
2021/07/02 08:33:51;;;;;;;18.80;10.67;;;18.40;97.30;;;;;;4964290;28;20963;-83
2021/07/02 08:36:17;;;;;;;20.43;10.70;;;18.50;97.30;;;;;;4964662;28;20526;-83
2021/07/02 08:38:42;;;;;;;21.03;9.80;;;18.60;97.30;;;;;;4962471;28;20178;-83
2021/07/02 08:41:12;;;;;;;20.07;10.57;;;18.60;97.30;;;;;;4965805;28;20211;-83
2021/07/02 08:43:42;;;;;;;17.70;10.37;;;18.60;97.30;;;;;;4965185;28;20171;-83
2021/07/02 08:46:12;;;;;;;21.60;11.73;;;18.60;97.30;;;;;;4956751;28;20480;-82
2021/07/02 08:48:39;;;;;;;25.93;11.03;;;18.70;97.30;;;;;;4965778;28;20488;-83
2021/07/02 08:51:07;;;;;;;23.90;10.63;;;18.70;97.30;;;;;;4962859;28;20438;-83
2021/07/02 08:53:33;;;;;;;20.40;10.50;;;18.80;97.30;;;;;;4963611;28;20455;-83
2021/07/02 08:56:01;;;;;;;20.60;10.00;;;18.90;97.30;;;;;;4961670;28;20745;-82
2021/07/02 08:58:27;;;;;;;25.53;12.23;;;18.90;97.30;;;;;;4963488;28;21051;-82
2021/07/02 09:00:53;;;;;;;22.70;12.47;;;18.90;97.30;;;;;;4965673;28;20565;-83
2021/07/02 09:03:32;;;;;;;23.30;11.27;;;18.90;97.30;;;;;;4964086;28;20183;-85
2021/07/02 09:06:13;;;;;;;19.70;11.47;;;18.90;97.30;;;;;;4985251;28;20439;-85
2021/07/02 09:08:39;;;;;;;20.63;11.30;;;19.00;97.30;;;;;;4956609;28;20421;-85
2021/07/02 09:11:28;;;;;;;27.03;13.17;;;19.00;97.30;;;;;;4954269;28;20477;-85
2021/07/02 09:13:54;;;;;;;19.63;10.57;;;19.00;97.30;;;;;;4956661;28;20426;-84
2021/07/02 09:16:22;;;;;;;21.07;11.27;;;19.00;97.30;;;;;;4959811;28;20995;-85
2021/07/02 09:18:48;;;;;;;27.83;10.93;;;19.00;97.30;;;;;;4959003;28;20554;-84
2021/07/02 09:21:44;;;;;;;19.57;10.40;;;19.10;97.30;;;;;;4953999;28;20461;-85
2021/07/02 09:24:43;;;;;;;24.30;12.33;;;19.20;97.30;;;;;;4934109;29;20199;-83
2021/07/02 09:27:23;;;;;;;19.17;10.70;;;19.30;97.30;;;;;;4949014;28;20443;-85
2021/07/02 09:30:13;;;;;;;26.10;11.43;;;19.40;97.30;;;;;;4959723;28;20422;-85
2021/07/02 09:32:41;;;;;;;24.73;12.27;;;19.40;97.30;;;;;;4959081;28;20438;-85
2021/07/02 09:35:07;;;;;;;23.00;11.30;;;19.50;97.30;;;;;;4958275;28;20450;-85
2021/07/02 09:37:43;;;;;;;19.33;10.83;;;19.60;97.30;;;;;;4958797;28;20432;-84
2021/07/02 09:40:10;;;;;;;21.33;11.27;;;19.70;97.30;;;;;;4940939;29;20441;-85
2021/07/02 09:42:42;;;;;;;22.23;11.50;;;19.80;97.30;;;;;;4939387;29;20446;-85
2021/07/02 09:45:11;;;;;;;20.50;11.30;;;19.90;97.30;;;;;;4953108;28;20429;-83
2021/07/02 09:47:39;;;;;;;24.70;11.70;;;19.90;97.30;;;;;;4954508;28;20429;-83
2021/07/02 09:50:26;;;;;;;18.87;10.70;;;19.90;97.30;;;;;;4968515;28;20438;-83
2021/07/02 09:52:56;;;;;;;20.10;10.93;;;19.90;97.30;;;;;;4950392;28;20422;-83
2021/07/02 09:55:24;;;;;;;24.53;12.30;;;19.80;97.30;;;;;;4952156;28;20421;-83
2021/07/02 09:58:01;;;;;;;25.27;11.80;;;19.80;97.30;;;;;;4953326;28;20426;-83
2021/07/02 10:00:26;;;;;;;24.13;13.27;;;19.80;97.30;;;;;;4953306;28;20464;-82
2021/07/02 10:02:57;;;;;;;24.77;12.03;;;19.80;97.30;;;;;;4950610;28;20431;-83
2021/07/02 10:05:24;;;;;;;26.03;13.03;;;19.80;97.30;;;;;;4947515;28;20274;-83
2021/07/02 10:08:01;;;;;;;25.37;13.83;;;19.80;97.30;;;;;;4947653;28;20421;-83
2021/07/02 10:10:28;;;;;;;23.30;13.40;;;19.80;97.30;;;;;;4948678;28;20876;-84
2021/07/02 10:12:55;;;;;;;20.13;11.30;;;19.90;97.30;;;;;;4951747;28;20445;-83
2021/07/02 10:15:21;;;;;;;25.13;12.60;;;20.00;97.30;;;;;;4945396;28;20431;-83
2021/07/02 10:17:47;;;;;;;24.10;12.17;;;20.10;97.30;;;;;;4966121;28;20492;-83
2021/07/02 10:20:16;;;;;;;20.80;12.00;;;20.10;97.30;;;;;;4946600;28;20820;-82
2021/07/02 10:22:46;;;;;;;22.40;12.20;;;20.10;97.30;;;;;;4946099;28;20171;-84
2021/07/02 10:25:15;;;;;;;22.20;11.67;;;20.10;97.30;;;;;;4947684;28;20435;-83
2021/07/02 10:27:41;;;;;;;17.30;11.23;;;20.10;97.30;;;;;;4946338;28;20434;-83
2021/07/02 10:30:09;;;;;;;14.83;10.07;;;20.20;97.30;;;;;;4951577;28;20797;-82
2021/07/02 10:32:36;;;;;;;16.70;9.43;;;20.20;97.30;;;;;;4948281;28;20195;-82
2021/07/02 10:35:02;;;;;;;14.57;9.07;;;20.30;97.30;;;;;;4949909;28;20431;-82
2021/07/02 10:37:30;;;;;;;20.07;9.40;;;20.20;97.30;;;;;;4948565;28;20410;-83
2021/07/02 10:39:59;;;;;;;17.03;9.73;;;20.20;97.30;;;;;;4954589;28;20421;-84
2021/07/02 10:42:25;;;;;;;14.43;8.87;;;20.20;97.30;;;;;;4966913;28;20455;-82
2021/07/02 10:44:53;;;;;;;17.17;8.40;;;20.30;97.30;;;;;;4971591;28;20413;-84
2021/07/02 10:47:23;;;;;;;13.77;7.43;;;20.40;97.30;;;;;;4966040;28;20938;-84
2021/07/02 10:49:50;;;;;;;14.27;8.90;;;20.50;97.30;;;;;;4957687;28;20440;-84
2021/07/02 10:52:44;;;;;;;14.70;7.80;;;20.50;97.30;;;;;;4966044;28;20438;-83
2021/07/02 10:55:35;;;;;;;15.37;7.70;;;20.60;97.30;;;;;;4959827;28;20468;-83
2021/07/02 10:59:03;;;;;;;13.97;8.03;;;20.70;97.30;;;;;;4957696;28;20960;-84
2021/07/02 11:02:04;;;;;;;11.53;7.03;;;20.70;97.30;;;;;;4966709;28;20469;-83
2021/07/02 11:05:24;;;;;;;19.73;8.90;;;20.70;97.30;;;;;;4940123;29;20418;-83
2021/07/02 11:07:54;;;;;;;16.50;9.23;;;20.70;97.30;;;;;;4940830;29;20454;-83
2021/07/02 11:10:25;;;;;;;11.90;7.60;;;20.70;97.30;;;;;;4948700;28;21072;-83
2021/07/02 11:12:56;;;;;;;13.63;8.30;;;20.90;97.30;;;;;;4958452;28;20442;-82
2021/07/02 11:15:23;;;;;;;18.63;8.37;;;21.00;97.30;;;;;;4943977;28;20608;-84
2021/07/02 11:18:14;;;;;;;17.63;7.40;;;21.10;97.30;;;;;;4958247;28;20426;-82
2021/07/02 11:23:18;;;;;;;16.00;8.27;;;21.40;97.30;;;;;;4989469;28;20472;-82
2021/07/02 11:25:54;;;;;;;14.87;8.73;;;21.40;97.10;;;;;;4957640;28;20460;-83
2021/07/02 11:28:44;;;;;;;15.67;8.53;;;21.50;97.30;;;;;;4978010;28;20516;-83
2021/07/02 11:33:40;;;;;;;12.60;7.60;;;21.70;97.30;;;;;;5010718;28;20487;-82
2021/07/02 11:36:07;;;;;;;13.20;7.30;;;21.70;96.50;;;;;;4993564;28;20432;-82
2021/07/02 11:38:52;;;;;;;12.30;7.50;;;21.80;96.20;;;;;;4992352;28;20467;-82
2021/07/02 11:41:24;;;;;;;11.40;6.97;;;21.90;96.20;;;;;;4993005;28;20518;-83
2021/07/02 11:43:51;;;;;;;12.13;6.70;;;21.90;96.50;;;;;;4994856;28;20416;-83
2021/07/02 11:46:23;;;;;;;12.00;6.30;;;21.90;94.80;;;;;;4985286;28;20440;-83
2021/07/02 11:48:51;;;;;;;11.23;7.13;;;21.90;94.00;;;;;;4984500;28;20413;-84
2021/07/02 11:51:24;;;;;;;12.13;7.90;;;22.00;95.90;;;;;;4992202;28;20862;-84
2021/07/02 11:53:51;;;;;;;11.33;7.20;;;22.10;95.30;;;;;;4991823;28;20515;-85
2021/07/02 11:56:20;;;;;;;15.00;8.53;;;22.10;95.70;;;;;;4987958;28;20491;-86
2021/07/02 11:59:06;;;;;;;14.87;8.87;;;21.80;95.10;;;;;;4981769;28;20425;-85
2021/07/02 12:02:04;;;;;;;13.67;8.13;;;21.70;96.00;;;;;;4976886;28;20464;-84
2021/07/02 12:05:23;;;;;;;14.43;7.97;;;21.60;96.90;;;;;;4981985;28;20449;-85
2021/07/02 12:07:54;;;;;;;13.73;8.53;;;21.40;97.10;;;;;;4993932;28;20431;-83
2021/07/02 12:11:02;;;;;;;13.83;7.67;;;21.30;97.30;;;;;;4993564;28;20952;-85
2021/07/02 12:13:33;;;;;;;14.30;7.97;;;21.30;97.30;;;;;;4988412;28;20432;-85
2021/07/02 12:16:11;;;;;;;9.80;6.80;;;21.30;97.30;;;;;;4986616;28;20978;-83
2021/07/02 12:18:39;;;;;;;11.90;7.63;;;21.30;97.00;;;;;;4987689;28;20424;-83
2021/07/02 12:21:11;;;;;;;15.00;7.90;;;21.40;97.30;;;;;;4981904;28;20468;-85
2021/07/02 12:23:43;;;;;;;10.33;6.83;;;21.60;96.20;;;;;;4984417;28;20427;-83
2021/07/02 12:26:16;;;;;;;13.17;6.80;;;21.80;95.60;;;;;;4983310;28;20455;-83
2021/07/02 12:28:51;;;;;;;10.00;6.20;;;22.10;95.70;;;;;;4983318;28;20989;-84
2021/07/02 12:31:21;;;;;;;9.73;6.93;;;22.40;96.00;;;;;;4989528;28;20538;-85
2021/07/02 12:33:51;;;;;;;13.73;7.67;;;22.60;94.20;;;;;;4988594;28;20444;-85
2021/07/02 12:36:16;;;;;;;15.07;7.60;;;22.70;96.30;;;;;;4987172;28;20439;-85
2021/07/02 12:39:06;;;;;;;14.23;8.20;;;22.80;94.90;;;;;;4982397;28;20416;-84
2021/07/02 12:41:40;;;;;;;11.53;7.50;;;22.90;94.90;;;;;;4988039;28;20224;-84
2021/07/02 12:44:07;;;;;;;11.10;6.93;;;23.10;96.60;;;;;;4984858;28;20988;-84
2021/07/02 12:46:33;;;;;;;11.27;7.23;;;23.20;94.30;;;;;;4986385;28;20435;-84
2021/07/02 12:49:18;;;;;;;14.50;8.30;;;23.40;94.90;;;;;;4986159;28;20433;-84
2021/07/02 12:52:00;;;;;;;10.63;7.77;;;23.40;93.30;;;;;;4994350;28;20440;-85
2021/07/02 12:57:20;;;;;;;9.70;7.00;;;23.20;92.30;;;;;;5018152;28;20411;-85
2021/07/02 12:59:50;;;;;;;12.83;8.00;;;22.80;93.30;;;;;;4980410;28;20421;-85
2021/07/02 13:02:31;;;;;;;11.20;7.57;;;22.40;93.80;;;;;;4993283;28;20525;-85
2021/07/02 13:04:59;;;;;;;10.07;7.20;;;22.10;95.30;;;;;;4993657;28;20939;-83
2021/07/02 13:07:25;;;;;;;12.60;8.23;;;21.90;96.60;;;;;;4995660;28;20420;-83
2021/07/02 13:10:07;;;;;;;12.10;8.30;;;21.80;97.30;;;;;;4997050;28;20428;-83
2021/07/02 13:12:33;;;;;;;11.90;7.20;;;21.80;96.90;;;;;;4995689;28;20208;-83
2021/07/02 13:15:10;;;;;;;12.57;7.73;;;21.90;97.30;;;;;;4996950;28;20428;-83
2021/07/02 13:17:45;;;;;;;12.60;7.53;;;22.00;96.70;;;;;;4980210;28;20185;-84
2021/07/02 13:20:13;;;;;;;15.27;8.60;;;22.10;96.30;;;;;;4994086;28;20525;-83
2021/07/02 13:22:40;;;;;;;19.90;7.83;;;22.20;96.60;;;;;;4997701;28;20427;-84
2021/07/02 13:25:11;;;;;;;10.93;7.70;;;22.40;95.40;;;;;;4997740;28;20436;-83
2021/07/02 13:27:38;;;;;;;10.83;7.27;;;22.50;95.50;;;;;;4996897;28;20412;-84
2021/07/02 13:30:11;;;;;;;12.93;6.90;;;22.60;96.00;;;;;;4982196;28;20964;-84
2021/07/02 13:32:37;;;;;;;10.03;7.17;;;22.60;95.40;;;;;;4983413;28;21004;-84
2021/07/02 13:35:19;;;;;;;12.00;8.20;;;22.50;95.70;;;;;;4992354;28;20909;-83
2021/07/02 13:37:53;;;;;;;13.50;8.63;;;22.30;96.10;;;;;;4997175;28;20949;-83
2021/07/02 13:40:48;;;;;;;12.30;8.43;;;22.10;96.10;;;;;;4997369;28;20420;-83
2021/07/02 13:43:16;;;;;;;14.93;8.73;;;21.90;96.40;;;;;;4997565;28;20503;-83
2021/07/02 13:46:02;;;;;;;17.03;8.00;;;21.70;96.10;;;;;;4995631;28;20425;-83
2021/07/02 13:48:28;;;;;;;13.50;7.10;;;21.70;97.30;;;;;;4997297;28;20949;-83
2021/07/02 13:50:54;;;;;;;15.43;8.30;;;21.50;96.90;;;;;;4989409;28;20456;-83
2021/07/02 13:53:22;;;;;;;11.80;7.57;;;21.30;96.90;;;;;;4996803;28;20435;-83
2021/07/02 13:55:49;;;;;;;13.13;7.93;;;21.20;97.30;;;;;;4996493;28;20243;-83
2021/07/02 13:58:15;;;;;;;15.47;8.33;;;21.20;97.30;;;;;;4996804;28;20426;-83
2021/07/02 14:00:42;;;;;;;20.90;9.90;;;21.10;97.30;;;;;;4993694;28;20559;-83
2021/07/02 14:03:08;;;;;;;15.23;8.73;;;21.10;97.30;;;;;;5012557;28;20174;-83
2021/07/02 14:05:35;;;;;;;12.57;8.63;;;21.00;97.30;;;;;;4993283;28;20465;-84
2021/07/02 14:08:02;;;;;;;16.10;8.97;;;21.00;97.30;;;;;;4990180;28;20465;-83
2021/07/02 14:10:28;;;;;;;12.90;8.00;;;21.00;97.30;;;;;;4996273;28;21014;-83
2021/07/02 14:12:54;;;;;;;15.40;9.67;;;20.90;97.30;;;;;;4985310;28;20429;-83
2021/07/02 14:15:20;;;;;;;21.80;10.07;;;20.90;97.30;;;;;;4976773;28;20424;-83
2021/07/02 14:17:50;;;;;;;22.47;10.30;;;20.90;97.30;;;;;;5002039;28;20177;-83
2021/07/02 14:20:16;;;;;;;21.03;10.43;;;20.90;97.30;;;;;;4985118;28;20409;-83
2021/07/02 14:22:43;;;;;;;23.03;9.07;;;20.80;97.30;;;;;;4987271;28;20441;-83
2021/07/02 14:25:16;;;;;;;17.77;9.47;;;20.90;97.30;;;;;;4984578;28;20189;-83
2021/07/02 14:27:42;;;;;;;18.17;9.50;;;20.90;97.30;;;;;;4977197;28;20426;-84
2021/07/02 14:30:11;;;;;;;19.40;9.33;;;20.80;97.30;;;;;;4975687;28;20417;-83
2021/07/02 14:32:37;;;;;;;19.50;10.03;;;20.90;97.30;;;;;;4976308;28;20221;-84
2021/07/02 14:35:04;;;;;;;15.33;9.20;;;20.90;97.30;;;;;;4992442;28;20424;-84
2021/07/02 14:37:32;;;;;;;18.80;9.37;;;20.90;97.30;;;;;;4989123;28;20444;-84
2021/07/02 14:39:58;;;;;;;15.60;9.60;;;20.90;97.30;;;;;;4975986;28;21014;-83
2021/07/02 14:42:23;;;;;;;15.83;9.43;;;20.90;97.30;;;;;;4976399;28;20464;-83
2021/07/02 14:44:49;;;;;;;19.87;9.10;;;20.90;97.30;;;;;;4993218;28;20188;-84
2021/07/02 14:47:16;;;;;;;17.60;9.80;;;20.90;97.30;;;;;;4995376;28;20208;-83
2021/07/02 14:49:42;;;;;;;16.87;9.87;;;20.90;97.30;;;;;;4993227;28;20176;-82
2021/07/02 14:52:08;;;;;;;16.80;9.60;;;20.90;97.30;;;;;;4981165;28;20526;-85
2021/07/02 14:54:34;;;;;;;16.13;10.23;;;20.90;97.30;;;;;;4991106;28;20555;-85
2021/07/02 14:57:00;;;;;;;20.03;11.03;;;20.80;97.30;;;;;;4996634;28;20674;-85
2021/07/02 14:59:25;;;;;;;19.33;8.90;;;20.80;97.30;;;;;;4994545;28;20522;-85
2021/07/02 15:01:51;;;;;;;16.37;9.60;;;20.80;97.30;;;;;;5004657;28;20263;-83
2021/07/02 15:04:16;;;;;;;18.07;10.40;;;20.80;97.30;;;;;;4990805;28;20173;-84
2021/07/02 15:06:42;;;;;;;20.37;10.00;;;20.80;97.30;;;;;;4984236;28;20190;-83
2021/07/02 15:09:08;;;;;;;14.80;8.47;;;20.70;97.30;;;;;;5007986;28;20187;-83
2021/07/02 15:11:33;;;;;;;18.57;9.57;;;20.70;97.30;;;;;;4987885;28;20670;-83
2021/07/02 15:13:59;;;;;;;15.20;9.90;;;20.70;97.30;;;;;;4998547;28;20495;-83
2021/07/02 15:16:24;;;;;;;18.20;10.93;;;20.70;97.30;;;;;;4985161;28;20236;-84